Time;durP1;ratioP1;P1;durP2;ratioP2;P2;SDS_P1;SDS_P2;PMS_P1;PMS_P2;Temp;Humidity;BMP_temperature;BMP_pressure;BME280_temperature;BME280_humidity;BME280_pressure;Samples;Min_cycle;Max_cycle;Signal;HPM_P1;HPM_P2
2023/01/09 00:00:41;;;;;;;3.72;1.88;;;;;;;8.34;nan;98709.16;5012030;28;20032;-89
2023/01/09 00:03:07;;;;;;;3.35;1.80;;;;;;;8.26;nan;98707.44;5021136;28;20057;-87
2023/01/09 00:05:32;;;;;;;3.42;2.00;;;;;;;8.27;nan;98709.09;5012102;28;20329;-89
2023/01/09 00:07:57;;;;;;;3.42;1.90;;;;;;;8.23;nan;98697.28;5013272;28;20034;-88
2023/01/09 00:10:23;;;;;;;4.18;2.10;;;;;;;8.25;nan;98697.91;5020638;28;20041;-85
2023/01/09 00:12:48;;;;;;;4.18;2.10;;;;;;;8.22;nan;98700.06;5033093;28;20116;-85
2023/01/09 00:15:14;;;;;;;2.67;1.95;;;;;;;8.20;nan;98691.53;5023613;28;20041;-86
2023/01/09 00:17:40;;;;;;;2.53;1.67;;;;;;;8.24;nan;98695.44;5051625;28;20405;-86
2023/01/09 00:20:08;;;;;;;2.10;1.60;;;;;;;8.32;nan;98676.09;5046209;28;20425;-85
2023/01/09 00:22:34;;;;;;;3.08;1.63;;;;;;;8.29;nan;98680.75;5029112;28;20056;-86
2023/01/09 00:25:00;;;;;;;2.10;1.55;;;;;;;8.30;nan;98669.22;5019022;28;20446;-86
2023/01/09 00:27:25;;;;;;;2.25;1.45;;;;;;;8.31;nan;98675.28;5025838;28;20506;-87
2023/01/09 00:29:50;;;;;;;2.23;1.47;;;;;;;8.40;nan;98663.69;5029118;28;20413;-87
2023/01/09 00:32:15;;;;;;;2.42;1.40;;;;;;;8.40;nan;98668.16;5008452;28;20057;-86
2023/01/09 00:34:42;;;;;;;2.40;1.60;;;;;;;8.34;nan;98656.47;5015566;28;20029;-87
2023/01/09 00:37:11;;;;;;;2.00;1.30;;;;;;;8.35;nan;98652.06;5027826;28;20409;-88
2023/01/09 00:39:38;;;;;;;;;;;;;;;8.33;nan;98662.75;5006158;28;20033;-89
2023/01/09 00:42:04;;;;;;;;;;;;;;;8.32;nan;98655.88;5013753;28;19920;-88
2023/01/09 00:45:01;;;;;;;1.55;1.20;;;;;;;8.28;nan;98660.69;5036949;28;19917;-88
2023/01/09 00:47:49;;;;;;;1.60;1.20;;;;;;;8.39;nan;98653.31;5005125;28;20427;-87
2023/01/09 00:50:25;;;;;;;3.92;1.00;;;;;;;8.35;nan;98652.06;5011116;28;20149;-88
2023/01/09 00:52:54;;;;;;;1.80;0.90;;;;;;;8.34;nan;98658.31;5011739;28;20384;-89
2023/01/09 00:55:19;;;;;;;1.45;0.90;;;;;;;8.43;nan;98649.34;5009472;28;20476;-88
2023/01/09 00:57:44;;;;;;;;;;;;;;;8.41;nan;98653.97;5012524;28;20698;-88
2023/01/09 01:00:10;;;;;;;;;;;;;;;8.40;nan;98649.72;5029383;28;20293;-89
2023/01/09 01:02:35;;;;;;;2.08;1.08;;;;;;;8.42;nan;98647.72;5004730;28;19944;-89
2023/01/09 01:07:44;;;;;;;1.70;1.05;;;;;;;8.44;nan;98643.09;5024022;28;20041;-89
2023/01/09 01:10:22;;;;;;;1.45;0.95;;;;;;;8.45;nan;98656.06;5003356;28;20474;-88
2023/01/09 01:12:48;;;;;;;1.00;0.80;;;;;;;8.56;nan;98649.50;5009894;28;20407;-89
2023/01/09 01:15:14;;;;;;;;;;;;;;;8.54;nan;98662.03;5011702;28;20026;-90
2023/01/09 01:17:39;;;;;;;;;;;;;;;8.54;nan;98655.97;5022724;28;19924;-87
2023/01/09 01:20:06;;;;;;;;;;;;;;;8.55;nan;98661.03;5012126;28;19966;-88
2023/01/09 01:22:31;;;;;;;;;;;;;;;8.54;nan;98666.50;5011674;28;20401;-89
2023/01/09 01:24:56;;;;;;;1.63;1.17;;;;;;;8.54;nan;98655.97;5030387;28;19921;-88
2023/01/09 01:27:21;;;;;;;;;;;;;;;8.54;nan;98656.78;5035559;28;20311;-88
2023/01/09 01:29:47;;;;;;;1.90;1.30;;;;;;;8.54;nan;98659.41;5028016;28;19913;-87
2023/01/09 01:32:15;;;;;;;1.83;1.10;;;;;;;8.56;nan;98667.13;5018146;28;20036;-88
2023/01/09 01:34:40;;;;;;;1.58;0.95;;;;;;;8.58;nan;98665.94;5014182;28;20407;-89
2023/01/09 01:37:06;;;;;;;1.40;1.15;;;;;;;8.57;nan;98661.66;5016331;28;20021;-88
2023/01/09 01:39:31;;;;;;;1.55;1.10;;;;;;;8.59;nan;98675.47;5025352;28;20215;-88
2023/01/09 01:41:56;;;;;;;1.40;0.82;;;;;;;8.60;nan;98681.56;5016863;28;20041;-88
2023/01/09 01:45:00;;;;;;;3.00;1.40;;;;;;;8.59;nan;98685.22;5016214;28;20084;-88
2023/01/09 01:47:31;;;;;;;1.75;1.10;;;;;;;8.57;nan;98671.41;5007687;28;20037;-88
2023/01/09 01:49:59;;;;;;;2.35;1.30;;;;;;;8.56;nan;98672.41;5012517;28;20088;-88
2023/01/09 01:52:26;;;;;;;1.55;1.20;;;;;;;8.54;nan;98675.22;5009344;28;20052;-88
2023/01/09 01:54:52;;;;;;;1.30;0.93;;;;;;;8.55;nan;98682.09;5012969;28;20511;-88
2023/01/09 01:57:17;;;;;;;2.88;1.30;;;;;;;8.55;nan;98682.09;5031276;28;20061;-88
2023/01/09 01:59:49;;;;;;;2.28;1.00;;;;;;;8.54;nan;98675.22;5032195;28;20136;-88
2023/01/09 02:02:21;;;;;;;1.83;1.15;;;;;;;8.51;nan;98686.13;5027053;28;20529;-88
2023/01/09 02:04:48;;;;;;;1.77;1.00;;;;;;;8.53;nan;98688.56;5005949;28;20045;-88
2023/01/09 02:07:13;;;;;;;2.13;1.20;;;;;;;8.51;nan;98683.50;5031355;28;20061;-88
2023/01/09 02:09:40;;;;;;;1.33;1.00;;;;;;;8.50;nan;98687.91;5013173;28;20057;-88
2023/01/09 02:12:22;;;;;;;2.13;1.02;;;;;;;8.50;nan;98685.28;5017969;28;20053;-88
2023/01/09 02:14:52;;;;;;;1.60;1.20;;;;;;;8.51;nan;98688.75;5029454;28;20517;-88
2023/01/09 02:17:36;;;;;;;1.63;1.10;;;;;;;8.49;nan;98675.78;5008981;28;20062;-89
2023/01/09 02:20:23;;;;;;;1.58;1.08;;;;;;;8.52;nan;98676.41;5013788;28;20037;-88
2023/01/09 02:23:20;;;;;;;1.95;1.15;;;;;;;8.50;nan;98677.38;5036180;28;20049;-90
2023/01/09 02:25:54;;;;;;;1.67;1.00;;;;;;;8.49;nan;98672.31;5027078;28;20087;-88
2023/01/09 02:28:55;;;;;;;3.08;1.20;;;;;;;8.47;nan;98666.41;5024315;28;20124;-88
2023/01/09 02:31:46;;;;;;;1.87;1.20;;;;;;;8.47;nan;98661.97;5013633;28;20045;-89
2023/01/09 02:34:23;;;;;;;2.13;1.15;;;;;;;8.49;nan;98659.97;5004474;28;20050;-88
2023/01/09 02:36:57;;;;;;;1.90;1.08;;;;;;;8.48;nan;98683.84;5027686;28;20036;-86
2023/01/09 02:39:42;;;;;;;1.63;1.10;;;;;;;8.48;nan;98673.31;5026409;28;20491;-87
2023/01/09 02:42:14;;;;;;;2.55;1.35;;;;;;;8.44;nan;98662.34;5026016;28;20091;-86
2023/01/09 02:44:41;;;;;;;2.65;1.20;;;;;;;8.47;nan;98667.22;5028494;28;20586;-87
2023/01/09 02:47:19;;;;;;;1.30;1.00;;;;;;;8.48;nan;98682.00;5027047;28;20044;-86
2023/01/09 02:49:57;;;;;;;1.75;1.20;;;;;;;8.50;nan;98681.84;5026878;28;20388;-87
2023/01/09 02:52:34;;;;;;;1.60;1.20;;;;;;;8.47;nan;98687.50;5008383;28;20128;-87
2023/01/09 02:55:11;;;;;;;2.03;1.40;;;;;;;8.46;nan;98697.22;5027963;28;20033;-87
2023/01/09 02:58:03;;;;;;;1.70;1.08;;;;;;;8.44;nan;98703.66;5010501;28;20087;-86
2023/01/09 03:00:42;;;;;;;1.77;1.13;;;;;;;8.38;nan;98699.09;5022056;28;20033;-87
2023/01/09 03:03:17;;;;;;;1.55;1.20;;;;;;;8.35;nan;98700.28;5025368;28;20399;-87
2023/01/09 03:05:50;;;;;;;1.60;1.20;;;;;;;8.33;nan;98704.09;5024304;28;20065;-88
2023/01/09 03:08:19;;;;;;;1.70;1.30;;;;;;;8.29;nan;98703.63;5009485;28;20228;-87
2023/01/09 03:11:01;;;;;;;1.38;1.00;;;;;;;8.25;nan;98718.16;5008293;28;20108;-87
2023/01/09 03:13:31;;;;;;;2.25;1.25;;;;;;;8.22;nan;98726.41;5022019;28;20045;-87
2023/01/09 03:16:01;;;;;;;1.80;1.30;;;;;;;8.09;nan;98740.22;5027247;28;20034;-87
2023/01/09 03:18:30;;;;;;;2.15;1.60;;;;;;;8.04;nan;98743.38;5026445;28;20042;-87
2023/01/09 03:20:55;;;;;;;2.17;1.30;;;;;;;8.08;nan;98736.75;5025567;28;20041;-87
2023/01/09 03:23:21;;;;;;;2.08;1.38;;;;;;;8.15;nan;98741.28;5027583;28;20048;-87
2023/01/09 03:25:46;;;;;;;2.42;1.55;;;;;;;8.11;nan;98746.13;5003023;28;20051;-87
2023/01/09 03:28:32;;;;;;;1.70;1.20;;;;;;;8.13;nan;98754.66;5008605;28;20072;-87
2023/01/09 03:30:57;;;;;;;2.47;1.30;;;;;;;8.13;nan;98756.44;5030391;28;20120;-87
2023/01/09 03:33:22;;;;;;;2.50;1.20;;;;;;;8.13;nan;98757.28;5029591;28;20117;-87
2023/01/09 03:35:47;;;;;;;2.00;1.40;;;;;;;8.15;nan;98749.19;5010983;28;20052;-87
2023/01/09 03:38:13;;;;;;;2.95;1.67;;;;;;;8.10;nan;98762.88;5035164;28;20166;-87
2023/01/09 03:40:39;;;;;;;2.97;1.35;;;;;;;8.10;nan;98778.69;5029369;28;20098;-86
2023/01/09 03:43:04;;;;;;;2.67;1.40;;;;;;;8.08;nan;98781.50;5029585;28;20042;-87
2023/01/09 03:45:29;;;;;;;1.92;1.30;;;;;;;8.08;nan;98785.97;5011298;28;20072;-86
2023/01/09 03:47:57;;;;;;;2.38;1.52;;;;;;;8.09;nan;98796.28;5037866;28;20462;-86
2023/01/09 03:50:22;;;;;;;2.13;1.50;;;;;;;8.08;nan;98801.75;5051602;28;20026;-86
2023/01/09 03:52:49;;;;;;;1.67;1.20;;;;;;;8.07;nan;98798.28;5052314;28;20073;-86
2023/01/09 03:55:14;;;;;;;2.13;1.50;;;;;;;8.08;nan;98799.94;5052451;28;20057;-86
2023/01/09 03:57:39;;;;;;;2.20;1.33;;;;;;;8.05;nan;98805.53;5035119;28;20095;-86
2023/01/09 04:00:05;;;;;;;2.58;1.40;;;;;;;8.05;nan;98810.00;5041320;28;20053;-86
2023/01/09 04:02:30;;;;;;;2.55;1.63;;;;;;;8.00;nan;98815.78;5022576;28;20068;-87
2023/01/09 04:04:56;;;;;;;3.00;1.50;;;;;;;8.01;nan;98829.78;5028189;28;20495;-88
2023/01/09 04:07:21;;;;;;;2.80;1.55;;;;;;;7.96;nan;98832.94;5026995;28;20037;-87
2023/01/09 04:09:46;;;;;;;3.58;1.65;;;;;;;7.99;nan;98839.66;5010630;28;20379;-87
2023/01/09 04:12:13;;;;;;;2.25;1.38;;;;;;;7.97;nan;98850.38;5025064;28;20064;-87
2023/01/09 04:14:38;;;;;;;2.10;1.50;;;;;;;7.98;nan;98856.44;5025845;28;20037;-87
2023/01/09 04:17:03;;;;;;;1.80;1.30;;;;;;;7.99;nan;98864.16;5009022;28;20037;-87
2023/01/09 04:19:28;;;;;;;2.80;1.50;;;;;;;7.97;nan;98867.97;5028828;28;20518;-87
2023/01/09 04:21:54;;;;;;;3.60;1.85;;;;;;;7.97;nan;98876.69;5007443;28;20122;-87
2023/01/09 04:24:19;;;;;;;1.98;1.27;;;;;;;7.98;nan;98888.03;5023314;28;20034;-87
2023/01/09 04:26:44;;;;;;;2.05;1.33;;;;;;;7.96;nan;98890.00;5023167;28;20237;-87
2023/01/09 04:29:09;;;;;;;1.75;1.10;;;;;;;7.95;nan;98904.19;5004907;28;20071;-87
2023/01/09 04:31:35;;;;;;;1.77;1.00;;;;;;;7.89;nan;98918.88;5009381;28;20419;-87
2023/01/09 04:34:00;;;;;;;2.22;1.00;;;;;;;7.84;nan;98923.81;5007366;28;20114;-87
2023/01/09 04:36:25;;;;;;;1.17;0.80;;;;;;;7.85;nan;98936.78;5007215;28;20041;-86
2023/01/09 04:38:50;;;;;;;1.10;0.70;;;;;;;7.80;nan;98940.94;5025244;28;20116;-87
2023/01/09 04:41:47;;;;;;;4.35;0.85;;;;;;;7.80;nan;98933.06;5027806;28;20041;-87
2023/01/09 04:44:01;;;;;;;1.50;0.90;;;;;;;7.72;nan;98935.72;5026731;28;20180;-87
2023/01/09 04:46:26;;;;;;;2.28;0.77;;;;;;;7.76;nan;98943.09;5024136;28;20509;-86
2023/01/09 04:48:51;;;;;;;1.85;0.68;;;;;;;7.79;nan;98947.19;5006059;28;20070;-87
2023/01/09 04:51:17;;;;;;;1.08;0.60;;;;;;;7.79;nan;98947.19;5007931;28;20091;-87
2023/01/09 04:53:42;;;;;;;0.82;0.70;;;;;;;7.78;nan;98946.38;5008130;28;20042;-86
2023/01/09 04:56:07;;;;;;;1.00;0.60;;;;;;;7.75;nan;98965.16;5021739;28;20034;-87
2023/01/09 04:58:32;;;;;;;1.70;0.77;;;;;;;7.78;nan;98962.16;5016576;28;20449;-87
2023/01/09 05:00:58;;;;;;;1.17;0.80;;;;;;;7.78;nan;98969.25;5005980;28;20137;-87
2023/01/09 05:03:23;;;;;;;2.13;0.98;;;;;;;7.82;nan;98974.00;5025293;28;20060;-87
2023/01/09 05:05:48;;;;;;;1.83;1.10;;;;;;;7.79;nan;98969.06;5027161;28;20046;-87
2023/01/09 05:08:14;;;;;;;1.50;0.90;;;;;;;7.81;nan;98980.22;5009437;28;20045;-86
2023/01/09 05:10:39;;;;;;;1.35;0.70;;;;;;;7.79;nan;98984.84;5011260;28;20402;-86
2023/01/09 05:13:04;;;;;;;1.35;0.85;;;;;;;7.79;nan;98997.19;5029217;28;20045;-86
2023/01/09 05:15:30;;;;;;;1.48;0.90;;;;;;;7.80;nan;99006.75;5029967;28;20045;-86
2023/01/09 05:17:55;;;;;;;2.53;0.80;;;;;;;7.75;nan;99009.88;5029803;28;20057;-87
2023/01/09 05:20:20;;;;;;;0.77;0.50;;;;;;;7.72;nan;99020.72;5028776;28;20274;-87
2023/01/09 05:22:46;;;;;;;1.88;0.65;;;;;;;7.70;nan;99012.19;5013314;28;20037;-87
2023/01/09 05:25:11;;;;;;;1.52;0.65;;;;;;;7.69;nan;99020.25;5005851;28;20037;-87
2023/01/09 05:27:36;;;;;;;1.17;0.60;;;;;;;7.67;nan;99023.03;5027512;28;20418;-87
2023/01/09 05:30:01;;;;;;;1.77;0.75;;;;;;;7.67;nan;99030.94;5014937;28;20037;-88
2023/01/09 05:32:27;;;;;;;0.93;0.80;;;;;;;7.61;nan;99031.63;5027872;28;20030;-87
2023/01/09 05:34:53;;;;;;;1.40;0.68;;;;;;;7.60;nan;99033.44;5009817;28;20478;-87
2023/01/09 05:37:18;;;;;;;1.33;0.70;;;;;;;7.59;nan;99038.88;5018372;28;20426;-87
2023/01/09 05:39:44;;;;;;;1.10;0.75;;;;;;;7.60;nan;99037.88;5013082;28;20076;-87
2023/01/09 05:42:09;;;;;;;1.42;0.73;;;;;;;7.60;nan;99043.97;5011648;28;20118;-87
2023/01/09 05:44:34;;;;;;;0.60;0.45;;;;;;;7.58;nan;99047.72;5016079;28;20060;-87
2023/01/09 05:46:59;;;;;;;1.02;0.65;;;;;;;7.55;nan;99046.25;5010682;28;20034;-87
2023/01/09 05:49:25;;;;;;;2.40;0.80;;;;;;;7.54;nan;99057.78;5012940;28;20038;-87
2023/01/09 05:51:50;;;;;;;1.73;0.80;;;;;;;7.49;nan;99056.66;5030778;28;20533;-87
2023/01/09 05:54:15;;;;;;;1.83;0.77;;;;;;;7.39;nan;99055.03;5013130;28;20099;-87
2023/01/09 05:56:41;;;;;;;1.08;0.60;;;;;;;7.25;nan;99044.38;5013705;28;20053;-86
2023/01/09 05:59:06;;;;;;;1.67;0.80;;;;;;;7.13;nan;99038.66;5010809;28;20042;-87
2023/01/09 06:01:32;;;;;;;2.17;0.73;;;;;;;7.05;nan;99049.16;5011262;28;20495;-86
2023/01/09 06:03:57;;;;;;;1.70;0.70;;;;;;;6.92;nan;99050.47;5030644;28;20045;-86
2023/01/09 06:06:23;;;;;;;2.20;0.68;;;;;;;6.88;nan;99064.09;5012790;28;20037;-87
2023/01/09 06:08:48;;;;;;;2.28;0.70;;;;;;;6.88;nan;99072.81;5036727;28;20112;-86
2023/01/09 06:11:13;;;;;;;1.33;0.90;;;;;;;6.90;nan;99077.91;5006015;28;20466;-87
2023/01/09 06:13:39;;;;;;;2.05;0.68;;;;;;;6.89;nan;99084.13;5030939;28;20037;-87
2023/01/09 06:16:05;;;;;;;1.98;1.08;;;;;;;6.93;nan;99091.53;5013229;28;20042;-87
2023/01/09 06:18:30;;;;;;;2.08;0.90;;;;;;;6.95;nan;99097.44;5023871;28;20037;-88
2023/01/09 06:20:56;;;;;;;2.83;0.80;;;;;;;6.93;nan;99104.66;5025520;28;20034;-87
2023/01/09 06:23:21;;;;;;;1.52;0.80;;;;;;;6.94;nan;99098.44;5019977;28;20040;-87
2023/01/09 06:25:46;;;;;;;3.42;1.05;;;;;;;6.93;nan;99099.41;5029410;28;20111;-86
2023/01/09 06:28:11;;;;;;;1.38;0.80;;;;;;;6.92;nan;99102.22;5011302;28;20033;-87
2023/01/09 06:30:37;;;;;;;1.17;0.80;;;;;;;6.91;nan;99104.03;5008914;28;20037;-86
2023/01/09 06:33:02;;;;;;;1.52;1.00;;;;;;;6.93;nan;99102.03;5012028;28;20037;-87
2023/01/09 06:35:27;;;;;;;1.95;0.80;;;;;;;6.92;nan;99103.03;5023909;28;20413;-87
2023/01/09 06:37:53;;;;;;;1.17;0.70;;;;;;;6.91;nan;99104.03;5011507;28;20030;-87
2023/01/09 06:40:19;;;;;;;5.00;1.08;;;;;;;6.90;nan;99112.06;5028695;28;20564;-87
2023/01/09 06:42:46;;;;;;;2.92;1.05;;;;;;;6.85;nan;99107.28;5010855;28;20087;-86
2023/01/09 06:45:15;;;;;;;3.10;0.90;;;;;;;6.88;nan;99112.22;5014822;28;20042;-85
2023/01/09 06:47:41;;;;;;;4.97;1.00;;;;;;;6.85;nan;99111.72;5021058;28;20034;-85
2023/01/09 06:50:08;;;;;;;2.25;0.93;;;;;;;6.84;nan;99113.53;5020467;28;20039;-85
2023/01/09 06:52:34;;;;;;;2.10;0.93;;;;;;;6.85;nan;99115.19;5038134;28;20037;-85
2023/01/09 06:54:59;;;;;;;1.65;0.85;;;;;;;6.87;nan;99110.59;5019898;28;20033;-85
2023/01/09 06:57:25;;;;;;;4.00;0.90;;;;;;;6.80;nan;99120.09;5018948;28;20064;-85
2023/01/09 06:59:56;;;;;;;2.15;1.17;;;;;;;6.83;nan;99111.88;5020463;28;20048;-85
2023/01/09 07:02:22;;;;;;;3.50;1.00;;;;;;;6.80;nan;99099.91;5016206;28;20037;-85
2023/01/09 07:04:47;;;;;;;3.58;1.10;;;;;;;6.80;nan;99101.72;5020673;28;20616;-85
2023/01/09 07:07:13;;;;;;;3.00;1.27;;;;;;;6.82;nan;99099.75;5036352;28;20087;-85
2023/01/09 07:09:38;;;;;;;2.83;0.98;;;;;;;6.79;nan;99095.63;5020014;28;20037;-85
2023/01/09 07:12:04;;;;;;;5.63;1.20;;;;;;;6.78;nan;99095.78;5018223;28;20042;-85
2023/01/09 07:14:29;;;;;;;2.65;1.00;;;;;;;6.80;nan;99096.47;5036098;28;20041;-85
2023/01/09 07:16:55;;;;;;;4.70;1.02;;;;;;;6.80;nan;99099.09;5017773;28;20090;-85
2023/01/09 07:19:20;;;;;;;3.95;1.08;;;;;;;6.82;nan;99102.38;5043799;28;20048;-85
2023/01/09 07:21:45;;;;;;;5.38;1.10;;;;;;;6.80;nan;99105.16;5031209;28;20116;-85
2023/01/09 07:24:11;;;;;;;3.45;1.13;;;;;;;6.77;nan;99118.63;5035656;28;20582;-84
2023/01/09 07:26:36;;;;;;;3.47;1.08;;;;;;;6.78;nan;99115.00;5026146;28;20037;-85
2023/01/09 07:29:02;;;;;;;3.28;1.02;;;;;;;6.76;nan;99119.59;5031873;28;20442;-85
2023/01/09 07:31:27;;;;;;;3.03;0.98;;;;;;;6.75;nan;99117.97;5013089;28;20379;-85
2023/01/09 07:33:52;;;;;;;4.57;1.10;;;;;;;6.76;nan;99121.41;5030333;28;20032;-85
2023/01/09 07:36:18;;;;;;;5.82;1.30;;;;;;;6.79;nan;99129.78;5028498;28;20045;-85
2023/01/09 07:38:43;;;;;;;5.03;1.27;;;;;;;6.76;nan;99134.53;5015428;28;20047;-85
2023/01/09 07:41:09;;;;;;;5.47;1.10;;;;;;;6.76;nan;99143.22;5036817;28;20041;-85
2023/01/09 07:43:35;;;;;;;5.03;1.20;;;;;;;6.77;nan;99144.88;5034087;28;20050;-84
2023/01/09 07:46:01;;;;;;;3.67;1.20;;;;;;;6.76;nan;99137.16;5017233;28;20057;-85
2023/01/09 07:48:26;;;;;;;3.83;1.20;;;;;;;6.77;nan;99150.16;5019441;28;20103;-85
2023/01/09 07:50:51;;;;;;;5.47;1.48;;;;;;;6.83;nan;99155.72;5015073;28;20057;-85
2023/01/09 07:53:17;;;;;;;4.68;1.02;;;;;;;6.83;nan;99151.28;5015593;28;20056;-85
2023/01/09 07:55:42;;;;;;;5.32;0.95;;;;;;;6.86;nan;99142.25;5022807;28;20039;-85
2023/01/09 07:58:07;;;;;;;3.40;1.02;;;;;;;6.88;nan;99146.38;5016656;28;20034;-85
2023/01/09 08:00:33;;;;;;;5.05;1.25;;;;;;;6.91;nan;99163.63;5026367;28;20037;-87
2023/01/09 08:02:58;;;;;;;4.53;1.10;;;;;;;6.99;nan;99164.47;5024894;28;20025;-87
2023/01/09 08:05:24;;;;;;;3.90;1.05;;;;;;;7.04;nan;99163.16;5020646;28;20103;-87
2023/01/09 08:07:50;;;;;;;7.93;1.38;;;;;;;7.02;nan;99171.19;5008375;28;20479;-87
2023/01/09 08:10:18;;;;;;;7.10;1.30;;;;;;;7.04;nan;99166.59;5008473;28;20055;-87
2023/01/09 08:12:44;;;;;;;5.65;1.50;;;;;;;7.07;nan;99173.34;5028421;28;20525;-85
2023/01/09 08:15:10;;;;;;;3.38;1.20;;;;;;;7.14;nan;99176.97;5025400;28;20550;-87
2023/01/09 08:17:35;;;;;;;4.97;1.33;;;;;;;7.18;nan;99165.97;5012173;28;20132;-87
2023/01/09 08:20:01;;;;;;;5.00;1.10;;;;;;;7.25;nan;99175.84;5012992;28;20087;-85
2023/01/09 08:22:27;;;;;;;6.63;1.40;;;;;;;7.31;nan;99172.53;5030937;28;20037;-87
2023/01/09 08:24:52;;;;;;;7.25;1.33;;;;;;;7.37;nan;99177.16;5009627;28;20041;-87
2023/01/09 08:27:17;;;;;;;4.00;1.20;;;;;;;7.44;nan;99180.78;5032034;28;20105;-86
2023/01/09 08:29:43;;;;;;;7.32;1.38;;;;;;;7.57;nan;99180.25;5028798;28;20043;-87
2023/01/09 08:32:08;;;;;;;6.53;1.55;;;;;;;7.73;nan;99177.63;5008896;28;20391;-87
2023/01/09 08:34:34;;;;;;;3.35;1.20;;;;;;;7.83;nan;99175.63;5011307;28;20086;-87
2023/01/09 08:37:00;;;;;;;4.47;1.20;;;;;;;7.94;nan;99176.28;5010910;28;20041;-87
2023/01/09 08:39:25;;;;;;;5.88;1.58;;;;;;;7.96;nan;99185.66;5024410;28;20080;-87
2023/01/09 08:47:32;;;;;;;4.35;1.17;;;;;;;8.18;nan;99189.38;5027258;28;20489;-88
2023/01/09 08:49:57;;;;;;;5.15;1.50;;;;;;;8.21;nan;99189.03;5008374;28;20059;-88
2023/01/09 08:52:22;;;;;;;5.97;1.63;;;;;;;8.16;nan;99193.16;5007531;28;20045;-88
2023/01/09 08:54:48;;;;;;;5.20;1.33;;;;;;;8.07;nan;99192.34;5009657;28;20447;-88
2023/01/09 08:57:13;;;;;;;9.52;1.48;;;;;;;8.11;nan;99198.13;5010854;28;20041;-88
2023/01/09 08:59:38;;;;;;;10.82;1.40;;;;;;;8.08;nan;99202.72;5009391;28;20075;-88
2023/01/09 09:02:03;;;;;;;6.60;1.50;;;;;;;7.99;nan;99197.66;5010177;28;20458;-88
2023/01/09 09:04:29;;;;;;;5.40;1.17;;;;;;;7.90;nan;99199.47;5021812;28;20412;-88
2023/01/09 09:06:54;;;;;;;2.70;1.05;;;;;;;7.78;nan;99209.50;5004817;28;20399;-88
2023/01/09 09:09:19;;;;;;;3.53;1.10;;;;;;;7.73;nan;99211.00;5009551;28;20136;-88
2023/01/09 09:11:45;;;;;;;5.32;1.10;;;;;;;7.72;nan;99215.44;5024516;28;20123;-88
2023/01/09 09:16:54;;;;;;;3.50;1.25;;;;;;;7.76;nan;99210.66;5027038;28;20048;-88
2023/01/09 09:19:19;;;;;;;4.80;1.30;;;;;;;7.78;nan;99220.03;5010122;28;20076;-88
2023/01/09 09:21:45;;;;;;;4.53;1.42;;;;;;;7.85;nan;99218.38;5009320;28;20034;-88
2023/01/09 09:24:10;;;;;;;5.10;1.10;;;;;;;7.80;nan;99212.00;5007612;28;20472;-88
2023/01/09 09:26:35;;;;;;;4.10;1.20;;;;;;;7.83;nan;99224.81;5009682;28;20037;-88
2023/01/09 09:29:01;;;;;;;5.55;1.10;;;;;;;7.78;nan;99220.03;5004143;28;20038;-88
2023/01/09 09:31:26;;;;;;;3.22;0.90;;;;;;;7.83;nan;99225.63;5015086;28;20045;-88
2023/01/09 09:33:51;;;;;;;3.90;0.88;;;;;;;7.89;nan;99224.16;5009917;28;20037;-87
2023/01/09 09:36:17;;;;;;;2.03;0.80;;;;;;;8.06;nan;99230.22;5005380;28;20032;-87
2023/01/09 09:38:45;;;;;;;4.78;1.13;;;;;;;8.18;nan;99220.16;5008114;28;20044;-87
2023/01/09 09:44:46;;;;;;;4.82;1.10;;;;;;;8.30;nan;99224.88;5020543;28;20076;-87
2023/01/09 09:47:53;;;;;;;4.35;0.98;;;;;;;8.35;nan;99220.94;5023971;28;20083;-87
2023/01/09 09:50:37;;;;;;;4.47;1.10;;;;;;;8.27;nan;99214.69;5022653;28;20458;-87
2023/01/09 09:53:17;;;;;;;7.38;1.50;;;;;;;8.18;nan;99226.22;5024213;28;20391;-87
2023/01/09 09:55:45;;;;;;;4.20;1.10;;;;;;;8.15;nan;99226.56;5030544;28;20026;-87
2023/01/09 09:58:33;;;;;;;4.68;1.10;;;;;;;8.09;nan;99232.50;5010585;28;20037;-87
2023/01/09 10:01:00;;;;;;;2.92;1.10;;;;;;;8.08;nan;99225.59;5012630;28;20091;-88
2023/01/09 10:03:49;;;;;;;8.10;1.90;;;;;;;8.07;nan;99229.22;5010516;28;20124;-87
2023/01/09 10:06:21;;;;;;;6.95;1.75;;;;;;;8.05;nan;99226.72;5028480;28;20055;-86
2023/01/09 10:09:18;;;;;;;4.53;1.00;;;;;;;8.00;nan;99217.72;5029488;28;20636;-87
2023/01/09 10:11:57;;;;;;;4.15;1.30;;;;;;;7.99;nan;99219.53;5030805;28;20555;-85
2023/01/09 10:14:23;;;;;;;5.20;1.13;;;;;;;7.97;nan;99215.41;5032060;28;20061;-85
2023/01/09 10:17:19;;;;;;;6.10;1.38;;;;;;;7.94;nan;99221.03;5013595;28;20067;-85
2023/01/09 10:20:01;;;;;;;4.50;1.17;;;;;;;7.92;nan;99215.09;5032129;28;20215;-85
2023/01/09 10:22:42;;;;;;;3.17;1.33;;;;;;;7.92;nan;99213.28;5031488;28;20033;-85
2023/01/09 10:25:18;;;;;;;2.10;0.90;;;;;;;7.91;nan;99213.44;5031079;28;20033;-87
2023/01/09 10:28:00;;;;;;;3.42;1.17;;;;;;;7.91;nan;99223.97;5013748;28;20391;-86
2023/01/09 10:30:33;;;;;;;2.97;1.10;;;;;;;7.87;nan;99224.31;5025128;28;20042;-87
2023/01/09 10:33:09;;;;;;;3.13;1.10;;;;;;;7.89;nan;99224.16;5032450;28;20391;-85
2023/01/09 10:35:40;;;;;;;3.83;0.90;;;;;;;7.88;nan;99230.38;5036023;28;20029;-85
2023/01/09 10:38:07;;;;;;;;;;;;;;;7.87;nan;99228.75;5019103;28;20037;-86
2023/01/09 10:40:44;;;;;;;4.07;1.00;;;;;;;7.82;nan;99226.63;5023199;28;19917;-85
2023/01/09 10:43:27;;;;;;;3.97;0.90;;;;;;;7.84;nan;99216.75;5031293;28;20026;-85
2023/01/09 10:45:58;;;;;;;3.10;1.00;;;;;;;7.89;nan;99213.63;5032315;28;20060;-85
2023/01/09 10:48:33;;;;;;;3.42;1.30;;;;;;;7.89;nan;99216.25;5014786;28;20332;-85
2023/01/09 10:50:58;;;;;;;5.15;1.00;;;;;;;7.97;nan;99218.06;5028103;28;20420;-86
2023/01/09 10:53:38;;;;;;;5.47;1.20;;;;;;;7.99;nan;99210.81;5013084;28;20045;-85
2023/01/09 10:56:18;;;;;;;2.88;1.02;;;;;;;7.94;nan;99221.03;5016217;28;20038;-85
2023/01/09 10:58:44;;;;;;;2.33;0.95;;;;;;;7.81;nan;99221.50;5032326;28;20039;-85
2023/01/09 11:01:09;;;;;;;5.38;1.30;;;;;;;7.66;nan;99229.25;5013466;28;20399;-85
2023/01/09 11:03:36;;;;;;;2.83;0.85;;;;;;;7.45;nan;99232.38;5012314;28;20036;-86
2023/01/09 11:06:02;;;;;;;3.85;1.05;;;;;;;7.50;nan;99227.44;5028649;28;20483;-86
2023/01/09 11:08:43;;;;;;;4.18;0.90;;;;;;;7.41;nan;99236.31;5027030;28;20168;-86
2023/01/09 11:11:09;;;;;;;2.03;0.77;;;;;;;7.39;nan;99231.22;5031913;28;20124;-86
2023/01/09 11:13:45;;;;;;;5.75;1.00;;;;;;;7.40;nan;99230.22;5016014;28;20503;-86
2023/01/09 11:16:20;;;;;;;2.38;0.82;;;;;;;7.36;nan;99230.72;5028741;28;20030;-89
2023/01/09 11:18:49;;;;;;;3.42;1.00;;;;;;;7.32;nan;99219.72;5024904;28;20044;-88
2023/01/09 11:21:31;;;;;;;2.60;1.00;;;;;;;7.30;nan;99221.69;5009531;28;20060;-88
2023/01/09 11:24:25;;;;;;;3.85;1.17;;;;;;;7.29;nan;99225.28;5008671;28;20029;-88
2023/01/09 11:26:52;;;;;;;2.17;0.90;;;;;;;7.37;nan;99217.41;5011036;28;20048;-88
2023/01/09 11:29:20;;;;;;;4.40;1.13;;;;;;;7.39;nan;99225.97;5028782;28;20385;-87
2023/01/09 11:31:57;;;;;;;2.53;0.90;;;;;;;7.36;nan;99233.34;5016446;28;20458;-87
2023/01/09 11:34:26;;;;;;;3.83;0.98;;;;;;;7.38;nan;99228.75;5028233;28;20064;-88
2023/01/09 11:37:00;;;;;;;5.00;1.25;;;;;;;7.34;nan;99222.16;5026349;28;20034;-87
2023/01/09 11:39:29;;;;;;;3.80;0.85;;;;;;;7.30;nan;99226.94;5009191;28;20038;-87
2023/01/09 11:41:59;;;;;;;2.95;1.00;;;;;;;7.31;nan;99214.59;5035106;28;20040;-87
2023/01/09 11:44:26;;;;;;;2.65;0.73;;;;;;;7.35;nan;99221.19;5033951;28;20095;-87
2023/01/09 11:46:52;;;;;;;4.45;1.00;;;;;;;7.37;nan;99221.84;5026860;28;20037;-88
2023/01/09 11:49:29;;;;;;;3.08;0.85;;;;;;;7.39;nan;99225.97;5011958;28;20038;-88
2023/01/09 11:52:14;;;;;;;2.70;0.85;;;;;;;7.33;nan;99223.97;5027183;28;20051;-87
2023/01/09 11:54:57;;;;;;;2.55;0.80;;;;;;;7.30;nan;99226.94;5025000;28;20033;-87
2023/01/09 11:57:24;;;;;;;3.10;0.90;;;;;;;7.30;nan;99223.50;5013898;28;20033;-87
2023/01/09 11:59:49;;;;;;;4.10;0.77;;;;;;;7.31;nan;99218.06;5023324;28;20040;-87
2023/01/09 12:02:45;;;;;;;2.95;0.90;;;;;;;7.36;nan;99223.63;5027086;28;20033;-87
2023/01/09 12:05:19;;;;;;;2.17;0.80;;;;;;;7.35;nan;99229.09;4995940;28;20034;-86
2023/01/09 12:08:06;;;;;;;2.42;0.98;;;;;;;7.36;nan;99236.78;5019274;28;20072;-87
2023/01/09 12:10:47;;;;;;;3.33;0.90;;;;;;;7.31;nan;99233.84;5043104;28;20368;-87
2023/01/09 12:13:51;;;;;;;;;;;;;;;7.27;nan;99226.44;5024584;28;20403;-87
2023/01/09 12:16:39;;;;;;;2.45;0.80;;;;;;;7.26;nan;99224.78;4982022;28;20017;-87
2023/01/09 12:19:25;;;;;;;1.42;0.70;;;;;;;7.28;nan;99226.28;4986917;28;20042;-87
2023/01/09 12:22:29;;;;;;;1.67;0.70;;;;;;;7.30;nan;99229.56;5010802;28;20044;-87
2023/01/09 12:25:06;;;;;;;2.75;0.73;;;;;;;7.33;nan;99223.97;5017412;28;20041;-87
2023/01/09 12:27:59;;;;;;;4.28;0.90;;;;;;;7.38;nan;99216.41;5019979;28;20122;-87